Agia Anna — SW8197 — position and weather

sailwx.info

Track history (hours):
 
Tides and Currents Weather Stations Pressure Air Temp Water Temp Dewpoint Dewpoint Depression Visibility Wind Speed Wind Dir Waves Ship Positions

Agia Anna

Last reported at 2017-Sep-24 13:19 UTC. Time now 2017-Sep-24 14:21 UTC.
Position N 40°19' E 024°00'.

Length 32 m; draft 2 m.

Type: Passenger vessel. MMSI: 237010400.

Date/timePositionNaut miles runAvg speedWind from/ knotsBaromVisibWave heightAir tempDewpointWater temp
2017-Sep-24 13:19N 40°19' E 024°00'3 9.1
2017-Sep-24 12:59N 40°17' E 024°04'4 7.5
2017-Sep-24 12:30N 40°17' E 024°08'4 7.4
2017-Sep-24 12:00N 40°14' E 024°12'4 5.4
2017-Sep-24 11:19N 40°11' E 024°14'4 3.5
2017-Sep-24 10:20N 40°09' E 024°17'2 5.0
2017-Sep-24 10:00N 40°10' E 024°16'5 4.7
2017-Sep-24 08:54N 40°14' E 024°12'4 9.5
2017-Sep-24 08:29N 40°16' E 024°07'  
2017-Sep-20 13:49N 40°17' E 024°04'3 9.6
2017-Sep-20 13:28N 40°16' E 024°08'4 7.7
2017-Sep-20 13:00N 40°14' E 024°12'3 5.6
2017-Sep-20 12:25N 40°11' E 024°14'5 3.2
2017-Sep-20 10:57N 40°07' E 024°17'2 4.7
2017-Sep-20 10:29N 40°10' E 024°17'2 4.8
2017-Sep-20 10:00N 40°11' E 024°14'0 0.3
2017-Sep-20 08:35N 40°11' E 024°14'1 8.9
2017-Sep-20 08:30N 40°11' E 024°15'4 2.2
2017-Sep-20 06:46N 40°08' E 024°17'5 5.1
2017-Sep-20 05:48N 40°12' E 024°13'3 6.0
2017-Sep-20 05:19N 40°14' E 024°12'8 0.5
2017-Sep-19 13:54N 40°17' E 024°03'6 8.4
2017-Sep-19 13:08N 40°15' E 024°11'1 9.5
2017-Sep-19 13:00N 40°14' E 024°12'8 4.1
2017-Sep-19 11:04N 40°08' E 024°17'1 5.4
2017-Sep-19 10:56N 40°08' E 024°17'2 4.9
2017-Sep-19 10:27N 40°10' E 024°16'3 5.8
2017-Sep-19 09:59N 40°12' E 024°13'1 1.0
2017-Sep-19 08:52N 40°11' E 024°14'4 2.5
2017-Sep-19 07:06N 40°08' E 024°17'2 3.1
2017-Sep-19 06:22N 40°10' E 024°17'2 4.7
2017-Sep-19 05:58N 40°11' E 024°15'4 5.1
2017-Sep-19 05:17N 40°14' E 024°12'7 0.5
2017-Sep-18 13:53N 40°17' E 024°03'4 7.4
2017-Sep-18 13:23N 40°17' E 024°08'4 9.3
2017-Sep-18 13:00N 40°14' E 024°12'4 5.5
2017-Sep-18 12:18N 40°11' E 024°14'2 6.7
2017-Sep-18 11:58N 40°09' E 024°16'2 1.7
2017-Sep-18 10:57N 40°08' E 024°17'2 4.2
2017-Sep-18 10:29N 40°10' E 024°17'2 4.7
2017-Sep-18 09:59N 40°11' E 024°14'4 1.3
2017-Sep-18 06:40N 40°08' E 024°17'6 4.9
2017-Sep-18 05:31N 40°12' E 024°13'0 9.4
2017-Sep-18 05:30N 40°12' E 024°13'3 5.2
2017-Sep-18 04:57N 40°14' E 024°10'9 8.3
2017-Sep-18 03:53N 40°18' E 024°00'1 0.1
2017-Sep-17 13:12N 40°19' E 023°59'2 9.2
2017-Sep-17 13:00N 40°18' E 024°01'6 9.3
2017-Sep-17 12:18N 40°15' E 024°08'10 5.4
2017-Sep-17 10:26N 40°08' E 024°17'2 4.9
2017-Sep-17 09:57N 40°10' E 024°16'6 5.1
2017-Sep-17 08:43N 40°14' E 024°10'2 9.2
2017-Sep-17 08:30N 40°15' E 024°08'5 9.3
2017-Sep-17 07:59N 40°17' E 024°02'2 0.1
2017-Sep-16 12:45N 40°17' E 024°05'3 7.1
2017-Sep-16 12:23N 40°16' E 024°09'4 9.3
2017-Sep-16 12:00N 40°14' E 024°12'5 5.1
2017-Sep-16 11:00N 40°10' E 024°16'1 0.6
2017-Sep-16 10:06N 40°09' E 024°17'1 5.0
2017-Sep-16 09:53N 40°10' E 024°16'2 5.7
2017-Sep-16 09:27N 40°12' E 024°13'1 0.5
2017-Sep-16 08:22N 40°12' E 024°13'0 0.1
2017-Sep-16 05:58N 40°12' E 024°13'3 5.8
2017-Sep-16 05:28N 40°14' E 024°11'3 0.2
2017-Sep-15 13:29N 40°16' E 024°07'10 3.3
2017-Sep-15 10:34N 40°10' E 024°17'1 4.3
2017-Sep-15 10:26N 40°10' E 024°16'2 0.9
2017-Sep-15 08:20N 40°11' E 024°14'4 2.4
2017-Sep-15 06:30N 40°07' E 024°17'9 5.4
2017-Sep-15 04:51N 40°15' E 024°11'4 0.3
2017-Sep-14 16:53N 40°17' E 024°06'2 3.5
2017-Sep-14 16:16N 40°16' E 024°09'7 9.1
2017-Sep-14 15:29N 40°18' E 024°00'  
Track history (hours):
 
Tides and Currents Weather Stations Pressure Air Temp Water Temp Dewpoint Dewpoint Depression Visibility Wind Speed Wind Dir Waves Ship Positions

Agia Anna

Last reported at 2017-Sep-24 13:19 UTC. Time now 2017-Sep-24 14:21 UTC.
Position N 40°19' E 024°00'.

Length 32 m; draft 2 m.

Type: Passenger vessel. MMSI: 237010400.

Date/timePositionNaut miles runAvg speedWind from/ knotsBaromVisibWave heightAir tempDewpointWater temp
2017-Sep-24 13:19N 40°19' E 024°00'3 9.1
2017-Sep-24 12:59N 40°17' E 024°04'4 7.5
2017-Sep-24 12:30N 40°17' E 024°08'4 7.4
2017-Sep-24 12:00N 40°14' E 024°12'4 5.4
2017-Sep-24 11:19N 40°11' E 024°14'4 3.5
2017-Sep-24 10:20N 40°09' E 024°17'2 5.0
2017-Sep-24 10:00N 40°10' E 024°16'5 4.7
2017-Sep-24 08:54N 40°14' E 024°12'4 9.5
2017-Sep-24 08:29N 40°16' E 024°07'  
2017-Sep-20 13:49N 40°17' E 024°04'3 9.6
2017-Sep-20 13:28N 40°16' E 024°08'4 7.7
2017-Sep-20 13:00N 40°14' E 024°12'3 5.6
2017-Sep-20 12:25N 40°11' E 024°14'5 3.2
2017-Sep-20 10:57N 40°07' E 024°17'2 4.7
2017-Sep-20 10:29N 40°10' E 024°17'2 4.8
2017-Sep-20 10:00N 40°11' E 024°14'0 0.3
2017-Sep-20 08:35N 40°11' E 024°14'1 8.9
2017-Sep-20 08:30N 40°11' E 024°15'4 2.2
2017-Sep-20 06:46N 40°08' E 024°17'5 5.1
2017-Sep-20 05:48N 40°12' E 024°13'3 6.0
2017-Sep-20 05:19N 40°14' E 024°12'8 0.5
2017-Sep-19 13:54N 40°17' E 024°03'6 8.4
2017-Sep-19 13:08N 40°15' E 024°11'1 9.5
2017-Sep-19 13:00N 40°14' E 024°12'8 4.1
2017-Sep-19 11:04N 40°08' E 024°17'1 5.4
2017-Sep-19 10:56N 40°08' E 024°17'2 4.9
2017-Sep-19 10:27N 40°10' E 024°16'3 5.8
2017-Sep-19 09:59N 40°12' E 024°13'1 1.0
2017-Sep-19 08:52N 40°11' E 024°14'4 2.5
2017-Sep-19 07:06N 40°08' E 024°17'2 3.1
2017-Sep-19 06:22N 40°10' E 024°17'2 4.7
2017-Sep-19 05:58N 40°11' E 024°15'4 5.1
2017-Sep-19 05:17N 40°14' E 024°12'7 0.5
2017-Sep-18 13:53N 40°17' E 024°03'4 7.4
2017-Sep-18 13:23N 40°17' E 024°08'4 9.3
2017-Sep-18 13:00N 40°14' E 024°12'4 5.5
2017-Sep-18 12:18N 40°11' E 024°14'2 6.7
2017-Sep-18 11:58N 40°09' E 024°16'2 1.7
2017-Sep-18 10:57N 40°08' E 024°17'2 4.2
2017-Sep-18 10:29N 40°10' E 024°17'2 4.7
2017-Sep-18 09:59N 40°11' E 024°14'4 1.3
2017-Sep-18 06:40N 40°08' E 024°17'6 4.9
2017-Sep-18 05:31N 40°12' E 024°13'0 9.4
2017-Sep-18 05:30N 40°12' E 024°13'3 5.2
2017-Sep-18 04:57N 40°14' E 024°10'9 8.3
2017-Sep-18 03:53N 40°18' E 024°00'1 0.1
2017-Sep-17 13:12N 40°19' E 023°59'2 9.2
2017-Sep-17 13:00N 40°18' E 024°01'6 9.3
2017-Sep-17 12:18N 40°15' E 024°08'10 5.4
2017-Sep-17 10:26N 40°08' E 024°17'2 4.9
2017-Sep-17 09:57N 40°10' E 024°16'6 5.1
2017-Sep-17 08:43N 40°14' E 024°10'2 9.2
2017-Sep-17 08:30N 40°15' E 024°08'5 9.3
2017-Sep-17 07:59N 40°17' E 024°02'2 0.1
2017-Sep-16 12:45N 40°17' E 024°05'3 7.1
2017-Sep-16 12:23N 40°16' E 024°09'4 9.3
2017-Sep-16 12:00N 40°14' E 024°12'5 5.1
2017-Sep-16 11:00N 40°10' E 024°16'1 0.6
2017-Sep-16 10:06N 40°09' E 024°17'1 5.0
2017-Sep-16 09:53N 40°10' E 024°16'2 5.7
2017-Sep-16 09:27N 40°12' E 024°13'1 0.5
2017-Sep-16 08:22N 40°12' E 024°13'0 0.1
2017-Sep-16 05:58N 40°12' E 024°13'3 5.8
2017-Sep-16 05:28N 40°14' E 024°11'3 0.2
2017-Sep-15 13:29N 40°16' E 024°07'10 3.3
2017-Sep-15 10:34N 40°10' E 024°17'1 4.3
2017-Sep-15 10:26N 40°10' E 024°16'2 0.9
2017-Sep-15 08:20N 40°11' E 024°14'4 2.4
2017-Sep-15 06:30N 40°07' E 024°17'9 5.4
2017-Sep-15 04:51N 40°15' E 024°11'4 0.3
2017-Sep-14 16:53N 40°17' E 024°06'2 3.5
2017-Sep-14 16:16N 40°16' E 024°09'7 9.1
2017-Sep-14 15:29N 40°18' E 024°00'  

Dump ship's entire track history